Greenville, Alabama
Current Conditions -  °F | °C
As of 11:56 AM on Friday 31 Oct 2014 (Local Time) from KPRN Reporting Station
Clear Clear  
Wind Chill: 70°   Ceiling: Unl
Heat Index: 70°   Visibility: 10mi
Dew Point: 41°   Wind: 6mph
Humidity: 35%   Direction: NA
Pressure: 29.95"   Gusts: NA
Location:  31.83°N, 86.63°W
Report Text: KPRN 311656Z AUTO VRB05KT 10SM CLR 21/05 A2995 RMK AO2 SLP141 T02110050
Loading
Personal Weather Stations






























Interactive Weather Map
Tropical Storm Tracking
New forecast layout! Learn more

10-Day Weather Forecast

Advertisements
Track Severe Weather on mobile